createdAt,value
2022-08-28T00:01:29.846Z,99417.41
2022-08-28T00:03:01.977Z,99414.66
2022-08-28T00:04:34.271Z,99413.78
2022-08-28T00:06:06.844Z,99415.00
2022-08-28T00:07:39.096Z,99406.56
2022-08-28T00:09:12.302Z,99409.97
2022-08-28T00:10:44.815Z,99405.78
2022-08-28T00:12:17.706Z,99402.94
2022-08-28T00:13:50.267Z,99395.31
2022-08-28T00:15:24.910Z,99395.22
2022-08-28T00:16:57.208Z,99395.75
2022-08-28T00:18:31.294Z,99389.66
2022-08-28T00:20:05.330Z,99385.56
2022-08-28T00:21:37.686Z,99380.19
2022-08-28T00:23:09.837Z,99370.69
2022-08-28T00:24:45.429Z,99352.91
2022-08-28T00:26:37.455Z,99348.03
2022-08-28T00:28:23.376Z,99334.66
2022-08-28T00:29:56.813Z,99332.22
2022-08-28T00:31:28.997Z,99332.94
2022-08-28T00:33:03.468Z,99330.94
2022-08-28T00:34:36.068Z,99326.16
2022-08-28T00:36:08.447Z,99307.09
2022-08-28T00:37:40.612Z,99303.13
2022-08-28T00:39:12.640Z,99299.66
2022-08-28T00:40:46.443Z,99291.50
2022-08-28T00:42:18.823Z,99293.56
2022-08-28T00:43:50.953Z,99295.59
2022-08-28T00:45:24.160Z,99289.91
2022-08-28T00:46:57.418Z,99294.88
2022-08-28T00:48:29.894Z,99286.72
2022-08-28T00:50:02.603Z,99274.41
2022-08-28T00:51:53.859Z,99262.09
2022-08-28T00:53:27.104Z,99258.66
2022-08-28T00:55:07.959Z,99249.63
2022-08-28T00:56:40.800Z,99251.59
2022-08-28T00:58:13.632Z,99242.56
2022-08-28T00:59:46.071Z,99241.84
2022-08-28T01:01:20.662Z,99232.91
2022-08-28T01:02:53.364Z,99241.84
2022-08-28T01:04:27.273Z,99229.44
2022-08-28T01:06:00.006Z,99230.16
2022-08-28T01:07:32.383Z,99228.91
2022-08-28T01:09:05.753Z,99220.75
2022-08-28T01:10:38.496Z,99224.84
2022-08-28T01:12:12.569Z,99216.75
2022-08-28T01:13:48.715Z,99216.75
2022-08-28T01:15:24.250Z,99213.31
2022-08-28T01:16:56.866Z,99215.53
2022-08-28T01:18:29.470Z,99215.72
2022-08-28T01:20:04.800Z,99207.66
2022-08-28T01:21:37.569Z,99210.56
2022-08-28T01:23:24.682Z,99206.66
2022-08-28T01:24:58.850Z,99201.91
2022-08-28T01:26:31.511Z,99201.91
2022-08-28T01:28:05.259Z,99199.28
2022-08-28T01:29:37.484Z,99202.72
2022-08-28T01:31:10.944Z,99204.13
2022-08-28T01:32:45.181Z,99204.81
2022-08-28T01:34:17.357Z,99206.09
2022-08-28T01:35:49.570Z,99211.59
2022-08-28T01:37:21.744Z,99205.94
2022-08-28T01:38:56.770Z,99207.06
2022-08-28T01:40:40.090Z,99218.69
2022-08-28T01:42:14.019Z,99217.19
2022-08-28T01:43:46.213Z,99211.53
2022-08-28T01:45:20.531Z,99215.72
2022-08-28T01:46:53.681Z,99212.97
2022-08-28T01:48:26.232Z,99213.13
2022-08-28T01:49:59.716Z,99211.25
2022-08-28T01:51:35.018Z,99209.41
2022-08-28T01:53:14.082Z,99210.88
2022-08-28T01:54:47.062Z,99208.22
2022-08-28T01:56:19.450Z,99212.31
2022-08-28T01:57:53.901Z,99208.13
2022-08-28T01:59:26.069Z,99213.63
2022-08-28T02:00:58.109Z,99215.59
2022-08-28T02:02:31.794Z,99203.25
2022-08-28T02:04:05.018Z,99197.75
2022-08-28T02:05:37.182Z,99181.13
2022-08-28T02:07:09.681Z,99181.56
2022-08-28T02:08:42.185Z,99177.97
2022-08-28T02:10:15.075Z,99167.50
2022-08-28T02:11:47.213Z,99166.09
2022-08-28T02:13:19.284Z,99158.41
2022-08-28T02:14:52.073Z,99158.31
2022-08-28T02:16:25.087Z,99161.78
2022-08-28T02:17:57.252Z,99156.91
2022-08-28T02:19:30.325Z,99165.06
2022-08-28T02:21:02.455Z,99170.56
2022-08-28T02:22:35.474Z,99192.59
2022-08-28T02:24:07.731Z,99222.19
2022-08-28T02:25:39.882Z,99233.94
2022-08-28T02:27:11.972Z,99241.56
2022-08-28T02:28:45.053Z,99245.09
2022-08-28T02:30:17.753Z,99243.84
2022-08-28T02:31:49.827Z,99239.06
2022-08-28T02:33:22.082Z,99231.66
2022-08-28T02:34:54.793Z,99242.69
2022-08-28T02:36:27.021Z,99238.63
2022-08-28T02:38:01.085Z,99238.63
2022-08-28T02:39:33.466Z,99242.19
2022-08-28T02:41:06.357Z,99245.69
2022-08-28T02:42:38.537Z,99243.06
2022-08-28T02:44:10.592Z,99236.91
2022-08-28T02:45:42.755Z,99236.91
2022-08-28T02:47:15.927Z,99247.91
2022-08-28T02:48:48.159Z,99243.84
2022-08-28T02:50:20.874Z,99243.84
2022-08-28T02:51:56.628Z,99244.56
2022-08-28T02:53:29.138Z,99232.13
2022-08-28T02:55:01.423Z,99241.69
2022-08-28T02:56:33.469Z,99240.31
2022-08-28T02:58:06.860Z,99223.81
2022-08-28T02:59:39.256Z,99233.47
2022-08-28T03:01:12.547Z,99230.03
2022-08-28T03:02:47.855Z,99227.28
2022-08-28T03:04:20.046Z,99226.47
2022-08-28T03:05:52.427Z,99228.63
2022-08-28T03:07:24.558Z,99223.72
2022-08-28T03:08:56.811Z,99226.47
2022-08-28T03:10:29.007Z,99228.50
2022-08-28T03:12:01.384Z,99223.72
2022-08-28T03:13:33.610Z,99215.47
2022-08-28T03:15:06.261Z,99223.00
2022-08-28T03:16:38.455Z,99222.94
2022-08-28T03:18:11.659Z,99227.75
2022-08-28T03:19:43.914Z,99225.00
2022-08-28T03:21:16.007Z,99222.25
2022-08-28T03:23:06.862Z,99227.09
2022-08-28T03:24:39.250Z,99222.31
2022-08-28T03:26:17.458Z,99218.84
2022-08-28T03:27:49.711Z,99214.88
2022-08-28T03:29:21.892Z,99223.81
2022-08-28T03:30:54.641Z,99221.72
2022-08-28T03:32:26.926Z,99227.91
2022-08-28T03:34:02.219Z,99232.06
2022-08-28T03:35:34.366Z,99234.00
2022-08-28T03:37:06.839Z,99226.47
2022-08-28T03:38:41.715Z,99225.75
2022-08-28T03:40:14.664Z,99212.03
2022-08-28T03:41:46.828Z,99214.72
2022-08-28T03:43:20.825Z,99213.91
2022-08-28T03:44:54.525Z,99218.63
2022-08-28T03:46:27.601Z,99213.72
2022-08-28T03:47:59.870Z,99219.22
2022-08-28T03:49:32.246Z,99210.41
2022-08-28T03:51:11.106Z,99214.53
2022-08-28T03:52:43.257Z,99216.03
2022-08-28T03:54:17.826Z,99218.06
2022-08-28T03:55:50.262Z,99216.66
2022-08-28T03:57:23.159Z,99217.28
2022-08-28T03:58:57.495Z,99217.28
2022-08-28T04:00:29.642Z,99217.91
2022-08-28T04:02:02.023Z,99218.63
2022-08-28T04:03:34.708Z,99226.94
2022-08-28T04:05:07.201Z,99229.03
2022-08-28T04:06:39.450Z,99229.78
2022-08-28T04:08:15.972Z,99229.22
2022-08-28T04:09:48.455Z,99227.97
2022-08-28T04:11:20.670Z,99223.28
2022-08-28T04:12:53.764Z,99230.25
2022-08-28T04:14:26.120Z,99231.69
2022-08-28T04:15:58.541Z,99233.00
2022-08-28T04:17:30.617Z,99231.41
2022-08-28T04:19:02.891Z,99231.97
2022-08-28T04:20:35.471Z,99236.75
2022-08-28T04:22:08.346Z,99233.47
2022-08-28T04:23:40.960Z,99228.84
2022-08-28T04:25:13.309Z,99227.63
2022-08-28T04:26:45.650Z,99231.94
2022-08-28T04:28:17.850Z,99233.50
2022-08-28T04:29:49.981Z,99228.91
2022-08-28T04:31:31.972Z,99231.19
2022-08-28T04:33:06.264Z,99234.88
2022-08-28T04:34:38.525Z,99240.63
2022-08-28T04:36:12.525Z,99235.28
2022-08-28T04:37:44.775Z,99232.09
2022-08-28T04:39:17.166Z,99232.13
2022-08-28T04:40:49.635Z,99230.81
2022-08-28T04:42:22.138Z,99223.88
2022-08-28T04:43:57.254Z,99230.03
2022-08-28T04:45:29.723Z,99225.25
2022-08-28T04:47:02.154Z,99240.31
2022-08-28T04:48:34.714Z,99232.72
2022-08-28T04:50:07.590Z,99240.09
2022-08-28T04:51:42.172Z,99242.72
2022-08-28T04:53:15.090Z,99238.59
2022-08-28T04:54:47.135Z,99238.59
2022-08-28T04:56:19.286Z,99242.72
2022-08-28T04:57:52.060Z,99237.22
2022-08-28T04:59:24.199Z,99240.69
2022-08-28T05:00:56.577Z,99247.59
2022-08-28T05:02:29.501Z,99246.84
2022-08-28T05:04:02.895Z,99246.13
2022-08-28T05:05:40.543Z,99255.78
2022-08-28T05:07:12.607Z,99255.25
2022-08-28T05:08:44.699Z,99260.75
2022-08-28T05:10:17.065Z,99263.50
2022-08-28T05:11:49.477Z,99268.34
2022-08-28T05:13:21.915Z,99265.59
2022-08-28T05:14:54.065Z,99281.41
2022-08-28T05:16:26.868Z,99279.97
2022-08-28T05:17:59.697Z,99290.16
2022-08-28T05:19:32.579Z,99294.91
2022-08-28T05:21:04.825Z,99298.41
2022-08-28T05:22:37.205Z,99302.69
2022-08-28T05:24:09.702Z,99300.16
2022-08-28T05:25:43.064Z,99309.44
2022-08-28T05:27:15.206Z,99300.25
2022-08-28T05:28:48.010Z,99301.28
2022-08-28T05:30:20.887Z,99310.50
2022-08-28T05:31:53.243Z,99298.31
2022-08-28T05:33:25.848Z,99302.47
2022-08-28T05:34:58.278Z,99304.69
2022-08-28T05:36:32.842Z,99309.63
2022-08-28T05:38:05.591Z,99313.84
2022-08-28T05:39:37.787Z,99313.84
2022-08-28T05:41:10.610Z,99317.41
2022-08-28T05:42:42.808Z,99319.31
2022-08-28T05:44:15.650Z,99314.56
2022-08-28T05:45:57.893Z,99322.25
2022-08-28T05:47:32.857Z,99327.59
2022-08-28T05:49:09.833Z,99332.31
2022-08-28T05:50:47.288Z,99330.16
2022-08-28T05:52:20.025Z,99334.78
2022-08-28T05:53:53.145Z,99335.63
2022-08-28T05:55:25.390Z,99322.63
2022-08-28T05:56:57.492Z,99335.84
2022-08-28T05:58:29.638Z,99330.25
2022-08-28T06:00:03.294Z,99326.94
2022-08-28T06:01:41.468Z,99336.75
2022-08-28T06:03:13.580Z,99330.69
2022-08-28T06:04:48.999Z,99332.09
2022-08-28T06:06:22.082Z,99333.56
2022-08-28T06:07:54.223Z,99327.66
2022-08-28T06:09:29.636Z,99330.88
2022-08-28T06:11:02.931Z,99330.22
2022-08-28T06:12:35.474Z,99328.78
2022-08-28T06:14:09.817Z,99330.38
2022-08-28T06:15:42.982Z,99326.34
2022-08-28T06:17:15.183Z,99328.97
2022-08-28T06:18:48.247Z,99326.78
2022-08-28T06:20:20.938Z,99331.59
2022-08-28T06:21:57.568Z,99328.91
2022-08-28T06:23:30.423Z,99330.50
2022-08-28T06:25:06.385Z,99336.09
2022-08-28T06:26:41.163Z,99330.69
2022-08-28T06:28:14.273Z,99341.22
2022-08-28T06:29:46.497Z,99325.63
2022-08-28T06:31:23.522Z,99328.50
2022-08-28T06:32:57.815Z,99335.72
2022-08-28T06:34:30.030Z,99330.91
2022-08-28T06:36:03.305Z,99335.84
2022-08-28T06:37:35.652Z,99335.22
2022-08-28T06:39:09.106Z,99337.59
2022-08-28T06:40:42.256Z,99342.78
2022-08-28T06:42:14.446Z,99336.75
2022-08-28T06:43:46.901Z,99336.53
2022-08-28T06:45:19.169Z,99334.09
2022-08-28T06:46:52.632Z,99344.59
2022-08-28T06:48:27.485Z,99347.66
2022-08-28T06:49:59.873Z,99349.06
2022-08-28T06:51:32.374Z,99345.13
2022-08-28T06:53:04.431Z,99347.91
2022-08-28T06:54:36.598Z,99357.13
2022-08-28T06:56:18.414Z,99346.78
2022-08-28T06:57:58.797Z,99351.69
2022-08-28T06:59:30.905Z,99357.50
2022-08-28T07:01:05.061Z,99351.56
2022-08-28T07:02:37.595Z,99346.94
2022-08-28T07:04:10.954Z,99350.00
2022-08-28T07:05:43.000Z,99349.47
2022-08-28T07:07:16.127Z,99348.81
2022-08-28T07:09:05.570Z,99352.38
2022-08-28T07:10:38.132Z,99353.28
2022-08-28T07:12:10.154Z,99361.69
2022-08-28T07:13:43.322Z,99358.41
2022-08-28T07:15:15.951Z,99357.50
2022-08-28T07:16:48.169Z,99357.63
2022-08-28T07:18:20.258Z,99363.59
2022-08-28T07:19:52.462Z,99359.28
2022-08-28T07:21:24.961Z,99358.88
2022-08-28T07:22:59.563Z,99352.34
2022-08-28T07:24:31.889Z,99357.88
2022-08-28T07:26:08.575Z,99355.16
2022-08-28T07:27:41.015Z,99354.53
2022-08-28T07:29:14.428Z,99357.44
2022-08-28T07:30:55.431Z,99359.72
2022-08-28T07:32:28.529Z,99358.75
2022-08-28T07:34:00.985Z,99368.06
2022-08-28T07:35:33.197Z,99367.59
2022-08-28T07:37:12.156Z,99359.34
2022-08-28T07:38:50.314Z,99363.53
2022-08-28T07:40:24.169Z,99372.72
2022-08-28T07:41:56.511Z,99372.84
2022-08-28T07:43:47.239Z,99366.19
2022-08-28T07:45:19.370Z,99365.84
2022-08-28T07:46:55.674Z,99367.25
2022-08-28T07:48:27.918Z,99360.94
2022-08-28T07:50:01.560Z,99367.28
2022-08-28T07:51:35.516Z,99366.00
2022-08-28T07:53:08.190Z,99358.31
2022-08-28T07:54:40.729Z,99368.81
2022-08-28T07:56:13.247Z,99365.50
2022-08-28T07:57:45.364Z,99365.63
2022-08-28T07:59:19.151Z,99371.31
2022-08-28T08:00:52.632Z,99370.03
2022-08-28T08:02:24.668Z,99374.31
2022-08-28T08:03:58.311Z,99377.88
2022-08-28T08:05:34.215Z,99380.06
2022-08-28T08:07:06.493Z,99379.44
2022-08-28T08:08:38.816Z,99382.25
2022-08-28T08:10:14.917Z,99382.94
2022-08-28T08:11:52.393Z,99382.22
2022-08-28T08:13:24.804Z,99391.31
2022-08-28T08:14:56.848Z,99383.72
2022-08-28T08:16:28.991Z,99383.06
2022-08-28T08:18:01.355Z,99386.59
2022-08-28T08:19:33.729Z,99389.44
2022-08-28T08:21:06.656Z,99376.88
2022-08-28T08:22:38.816Z,99376.16
2022-08-28T08:24:19.401Z,99381.03
2022-08-28T08:25:59.165Z,99385.91
2022-08-28T08:27:38.788Z,99389.38
2022-08-28T08:29:13.636Z,99390.03
2022-08-28T08:30:46.151Z,99385.19
2022-08-28T08:32:18.417Z,99389.25
2022-08-28T08:33:51.990Z,99385.69
2022-08-28T08:35:24.549Z,99386.97
2022-08-28T08:36:56.930Z,99387.53
2022-08-28T08:38:30.629Z,99387.56
2022-08-28T08:40:04.053Z,99391.09
2022-08-28T08:41:43.574Z,99392.63
2022-08-28T08:43:18.638Z,99401.09
2022-08-28T08:44:52.302Z,99399.13
2022-08-28T08:46:31.263Z,99396.41
2022-08-28T08:48:03.900Z,99406.19
2022-08-28T08:49:38.048Z,99397.88
2022-08-28T08:51:21.264Z,99397.19
2022-08-28T08:52:53.326Z,99400.69
2022-08-28T08:54:25.830Z,99406.94
2022-08-28T08:55:58.377Z,99401.38
2022-08-28T08:57:31.643Z,99400.66
2022-08-28T08:59:05.002Z,99406.25
2022-08-28T09:00:39.588Z,99411.13
2022-08-28T09:02:18.173Z,99407.63
2022-08-28T09:03:56.332Z,99403.38
2022-08-28T09:05:44.130Z,99405.41
2022-08-28T09:07:18.982Z,99408.19
2022-08-28T09:08:54.266Z,99401.16
2022-08-28T09:10:42.803Z,99403.88
2022-08-28T09:12:35.096Z,99409.47
2022-08-28T09:14:12.625Z,99405.38
2022-08-28T09:15:49.928Z,99417.97
2022-08-28T09:17:24.127Z,99418.69
2022-08-28T09:18:57.041Z,99413.00
2022-08-28T09:20:33.207Z,99417.31
2022-08-28T09:22:05.645Z,99422.97
2022-08-28T09:23:37.788Z,99424.34
2022-08-28T09:25:10.725Z,99420.88
2022-08-28T09:26:50.460Z,99419.50
2022-08-28T09:28:25.017Z,99415.31
2022-08-28T09:30:07.973Z,99424.41
2022-08-28T09:31:41.921Z,99419.50
2022-08-28T09:33:14.321Z,99411.84
2022-08-28T09:35:05.980Z,99427.19
2022-08-28T09:36:38.895Z,99410.44
2022-08-28T09:38:21.377Z,99423.69
2022-08-28T09:40:26.492Z,99416.69
2022-08-28T09:42:34.100Z,99427.13
2022-08-28T09:44:06.261Z,99421.50
2022-08-28T09:45:39.200Z,99424.97
2022-08-28T09:47:31.251Z,99420.13
2022-08-28T09:49:12.040Z,99418.72
2022-08-28T09:50:57.260Z,99422.91
2022-08-28T09:52:29.299Z,99415.97
2022-08-28T09:54:03.874Z,99414.56
2022-08-28T09:55:44.753Z,99420.91
2022-08-28T09:57:17.359Z,99420.22
2022-08-28T09:58:51.462Z,99415.31
2022-08-28T10:00:23.662Z,99419.50
2022-08-28T10:02:03.156Z,99416.00
2022-08-28T10:04:11.598Z,99422.31
2022-08-28T10:06:02.234Z,99414.63
2022-08-28T10:07:34.337Z,99419.47
2022-08-28T10:09:30.850Z,99411.69
2022-08-28T10:11:10.197Z,99413.72
2022-08-28T10:12:46.936Z,99408.75
2022-08-28T10:14:31.870Z,99404.53
2022-08-28T10:16:04.861Z,99401.66
2022-08-28T10:17:47.794Z,99407.22
2022-08-28T10:19:46.238Z,99404.41
2022-08-28T10:21:25.646Z,99401.66
2022-08-28T10:22:57.719Z,99409.34
2022-08-28T10:24:49.176Z,99401.69
2022-08-28T10:26:40.299Z,99400.31
2022-08-28T10:28:18.195Z,99396.94
2022-08-28T10:29:50.750Z,99399.13
2022-08-28T10:31:37.942Z,99392.25
2022-08-28T10:33:19.067Z,99405.53
2022-08-28T10:34:59.602Z,99403.47
2022-08-28T10:36:35.160Z,99403.44
2022-08-28T10:38:13.306Z,99395.09
2022-08-28T10:39:57.789Z,99393.69
2022-08-28T10:41:37.387Z,99407.63
2022-08-28T10:43:15.039Z,99405.47
2022-08-28T10:44:54.595Z,99404.75
2022-08-28T10:46:41.898Z,99415.16
2022-08-28T10:48:33.817Z,99407.44
2022-08-28T10:50:14.558Z,99397.72
2022-08-28T10:51:49.156Z,99403.31
2022-08-28T10:53:25.235Z,99403.97
2022-08-28T10:55:07.125Z,99403.31
2022-08-28T10:56:43.262Z,99395.69
2022-08-28T10:58:24.460Z,99406.16
2022-08-28T11:00:00.011Z,99401.97
2022-08-28T11:01:34.515Z,99393.63
2022-08-28T11:03:22.227Z,99405.47
2022-08-28T11:05:01.051Z,99407.50
2022-08-28T11:06:41.619Z,99397.75
2022-08-28T11:08:23.518Z,99401.19
2022-08-28T11:09:55.780Z,99399.00
2022-08-28T11:11:45.693Z,99392.69
2022-08-28T11:13:41.178Z,99392.66
2022-08-28T11:15:36.387Z,99396.19
2022-08-28T11:17:21.716Z,99392.09
2022-08-28T11:19:17.584Z,99387.97
2022-08-28T11:21:08.976Z,99394.25
2022-08-28T11:22:41.354Z,99384.50
2022-08-28T11:24:21.340Z,99378.25
2022-08-28T11:25:55.033Z,99381.75
2022-08-28T11:27:31.433Z,99381.00
2022-08-28T11:29:04.336Z,99385.91
2022-08-28T11:30:36.621Z,99387.28
2022-08-28T11:32:30.144Z,99378.22
2022-08-28T11:34:02.942Z,99383.78
2022-08-28T11:35:43.635Z,99384.50
2022-08-28T11:37:35.798Z,99384.50
2022-08-28T11:39:13.773Z,99388.72
2022-08-28T11:40:52.002Z,99377.56
2022-08-28T11:42:35.158Z,99386.66
2022-08-28T11:44:13.274Z,99388.06
2022-08-28T11:45:48.246Z,99382.50
2022-08-28T11:47:36.090Z,99385.28
2022-08-28T11:49:23.563Z,99382.50
2022-08-28T11:51:02.467Z,99383.94
2022-08-28T11:52:44.137Z,99380.44
2022-08-28T11:54:45.462Z,99379.03
2022-08-28T11:56:37.077Z,99377.63
2022-08-28T11:58:19.956Z,99379.72
2022-08-28T11:59:52.029Z,99385.97
2022-08-28T12:01:29.705Z,99378.28
2022-08-28T12:03:10.013Z,99370.59
2022-08-28T12:04:43.226Z,99376.91
2022-08-28T12:06:15.381Z,99376.22
2022-08-28T12:07:48.445Z,99376.19
2022-08-28T12:09:26.668Z,99381.78
2022-08-28T12:10:59.245Z,99386.63
2022-08-28T12:12:46.287Z,99383.88
2022-08-28T12:14:27.945Z,99387.38
2022-08-28T12:16:05.905Z,99385.97
2022-08-28T12:17:46.514Z,99388.09
2022-08-28T12:19:27.437Z,99378.25
2022-08-28T12:21:01.134Z,99377.59
2022-08-28T12:22:46.651Z,99381.09
2022-08-28T12:24:21.473Z,99379.63
2022-08-28T12:26:05.069Z,99381.03
2022-08-28T12:27:38.434Z,99382.41
2022-08-28T12:29:27.318Z,99375.41
2022-08-28T12:31:05.978Z,99382.31
2022-08-28T12:32:43.189Z,99382.97
2022-08-28T12:34:33.760Z,99385.03
2022-08-28T12:36:08.677Z,99381.56
2022-08-28T12:37:52.319Z,99379.44
2022-08-28T12:39:26.053Z,99380.81
2022-08-28T12:40:58.356Z,99376.63
2022-08-28T12:42:32.374Z,99374.50
2022-08-28T12:44:08.986Z,99377.25
2022-08-28T12:45:44.348Z,99379.31
2022-08-28T12:47:20.737Z,99378.56
2022-08-28T12:48:54.282Z,99373.59
2022-08-28T12:50:31.915Z,99377.78
2022-08-28T12:52:16.852Z,99374.22
2022-08-28T12:53:53.946Z,99367.84
2022-08-28T12:55:26.799Z,99370.59
2022-08-28T12:56:58.839Z,99372.03
2022-08-28T12:58:32.593Z,99377.66
2022-08-28T13:00:08.704Z,99367.28
2022-08-28T13:01:41.823Z,99373.56
2022-08-28T13:03:14.324Z,99368.66
2022-08-28T13:05:01.261Z,99358.91
2022-08-28T13:06:36.609Z,99359.63
2022-08-28T13:08:11.270Z,99356.22
2022-08-28T13:09:48.578Z,99357.66
2022-08-28T13:11:20.690Z,99356.28
2022-08-28T13:13:05.864Z,99355.53
2022-08-28T13:14:43.249Z,99356.88
2022-08-28T13:16:35.613Z,99358.97
2022-08-28T13:18:10.527Z,99360.50
2022-08-28T13:19:43.094Z,99354.31
2022-08-28T13:21:18.410Z,99352.31
2022-08-28T13:23:05.627Z,99351.66
2022-08-28T13:24:39.401Z,99354.47
2022-08-28T13:26:12.384Z,99354.50
2022-08-28T13:27:44.529Z,99351.03
2022-08-28T13:29:19.541Z,99351.00
2022-08-28T13:30:58.425Z,99351.75
2022-08-28T13:32:33.120Z,99351.81
2022-08-28T13:34:09.760Z,99356.03
2022-08-28T13:35:42.198Z,99353.94
2022-08-28T13:37:34.237Z,99356.00
2022-08-28T13:39:06.569Z,99346.94
2022-08-28T13:41:04.446Z,99346.94
2022-08-28T13:42:36.897Z,99355.31
2022-08-28T13:44:09.775Z,99359.47
2022-08-28T13:45:44.281Z,99347.63
2022-08-28T13:47:19.173Z,99350.34
2022-08-28T13:48:51.261Z,99350.34
2022-08-28T13:50:23.888Z,99351.03
2022-08-28T13:51:57.335Z,99341.22
2022-08-28T13:53:29.471Z,99355.84
2022-08-28T13:55:04.046Z,99348.84
2022-08-28T13:56:38.939Z,99347.34
2022-08-28T13:58:11.420Z,99345.19
2022-08-28T13:59:43.722Z,99351.44
2022-08-28T14:01:19.067Z,99347.25
2022-08-28T14:03:13.600Z,99351.38
2022-08-28T14:04:45.759Z,99347.88
2022-08-28T14:06:18.531Z,99343.66
2022-08-28T14:07:51.263Z,99354.09
2022-08-28T14:09:23.653Z,99353.34
2022-08-28T14:10:56.030Z,99356.03
2022-08-28T14:12:33.011Z,99355.34
2022-08-28T14:14:05.649Z,99356.06
2022-08-28T14:15:38.429Z,99358.13
2022-08-28T14:17:10.592Z,99360.19
2022-08-28T14:18:42.694Z,99364.38
2022-08-28T14:20:15.220Z,99365.75
2022-08-28T14:21:47.775Z,99372.06
2022-08-28T14:23:20.034Z,99361.66
2022-08-28T14:24:52.291Z,99364.44
2022-08-28T14:26:24.359Z,99374.91
2022-08-28T14:27:56.919Z,99366.56
2022-08-28T14:29:29.015Z,99372.84
2022-08-28T14:31:01.150Z,99362.38
2022-08-28T14:32:34.029Z,99370.09
2022-08-28T14:34:07.858Z,99372.19
2022-08-28T14:35:40.821Z,99364.59
2022-08-28T14:37:13.785Z,99372.22
2022-08-28T14:38:49.677Z,99370.91
2022-08-28T14:40:24.206Z,99369.44
2022-08-28T14:41:56.326Z,99366.66
2022-08-28T14:43:28.413Z,99363.84
2022-08-28T14:45:00.582Z,99366.59
2022-08-28T14:46:35.877Z,99356.16
2022-08-28T14:48:07.946Z,99363.78
2022-08-28T14:49:40.179Z,99365.22
2022-08-28T14:51:12.464Z,99368.66
2022-08-28T14:52:44.966Z,99364.47
2022-08-28T14:54:24.166Z,99361.00
2022-08-28T14:55:56.297Z,99365.84
2022-08-28T14:57:28.410Z,99365.84
2022-08-28T14:59:01.615Z,99360.19
2022-08-28T15:00:37.904Z,99356.00
2022-08-28T15:02:10.226Z,99365.00
2022-08-28T15:03:42.278Z,99371.94
2022-08-28T15:05:15.592Z,99362.19
2022-08-28T15:06:47.750Z,99366.31
2022-08-28T15:08:19.948Z,99366.28
2022-08-28T15:09:52.053Z,99361.41
2022-08-28T15:11:25.918Z,99363.50
2022-08-28T15:12:57.974Z,99352.34
2022-08-28T15:14:31.429Z,99351.53
2022-08-28T15:16:15.539Z,99345.88
2022-08-28T15:17:48.479Z,99346.59
2022-08-28T15:19:23.329Z,99352.09
2022-08-28T15:20:55.434Z,99354.81
2022-08-28T15:22:27.996Z,99354.81
2022-08-28T15:24:01.319Z,99359.63
2022-08-28T15:25:33.418Z,99354.06
2022-08-28T15:27:05.593Z,99354.00
2022-08-28T15:28:38.190Z,99353.94
2022-08-28T15:30:11.721Z,99353.91
2022-08-28T15:31:45.858Z,99349.00
2022-08-28T15:33:18.562Z,99351.03
2022-08-28T15:34:51.841Z,99353.06
2022-08-28T15:36:24.274Z,99356.44
2022-08-28T15:37:56.385Z,99357.78
2022-08-28T15:39:47.046Z,99356.22
2022-08-28T15:41:25.522Z,99358.25
2022-08-28T15:42:58.057Z,99352.56
2022-08-28T15:44:30.288Z,99362.94
2022-08-28T15:46:10.067Z,99365.66
2022-08-28T15:47:42.809Z,99358.66
2022-08-28T15:49:17.446Z,99358.59
2022-08-28T15:50:49.865Z,99363.38
2022-08-28T15:52:25.206Z,99367.50
2022-08-28T15:53:58.958Z,99364.75
2022-08-28T15:55:31.354Z,99366.88
2022-08-28T15:57:03.565Z,99368.28
2022-08-28T15:58:36.083Z,99367.56
2022-08-28T16:00:10.444Z,99360.63
2022-08-28T16:01:43.437Z,99356.47
2022-08-28T16:03:15.954Z,99355.81
2022-08-28T16:04:49.828Z,99351.63
2022-08-28T16:06:22.460Z,99349.56
2022-08-28T16:07:54.906Z,99359.97
2022-08-28T16:09:27.113Z,99354.50
2022-08-28T16:10:59.189Z,99358.09
2022-08-28T16:12:32.601Z,99354.72
2022-08-28T16:14:05.053Z,99352.63
2022-08-28T16:15:37.697Z,99354.75
2022-08-28T16:17:10.840Z,99349.91
2022-08-28T16:18:43.497Z,99352.09
2022-08-28T16:20:15.927Z,99345.84
2022-08-28T16:21:48.103Z,99354.16
2022-08-28T16:23:20.248Z,99345.81
2022-08-28T16:24:52.392Z,99352.75
2022-08-28T16:26:24.867Z,99358.19
2022-08-28T16:27:57.474Z,99362.31
2022-08-28T16:29:29.626Z,99362.19
2022-08-28T16:31:07.355Z,99360.03
2022-08-28T16:32:39.953Z,99364.78
2022-08-28T16:34:12.325Z,99370.28
2022-08-28T16:35:49.304Z,99368.06
2022-08-28T16:37:23.151Z,99367.97
2022-08-28T16:39:00.546Z,99366.41
2022-08-28T16:40:38.173Z,99367.00
2022-08-28T16:42:10.559Z,99372.50
2022-08-28T16:43:43.485Z,99371.03
2022-08-28T16:45:16.031Z,99368.78
2022-08-28T16:46:48.384Z,99375.59
2022-08-28T16:48:20.662Z,99365.09
2022-08-28T16:50:02.072Z,99367.78
2022-08-28T16:51:35.381Z,99367.69
2022-08-28T16:53:07.465Z,99373.81
2022-08-28T16:54:48.517Z,99377.97
2022-08-28T16:56:23.700Z,99368.78
2022-08-28T16:57:56.316Z,99368.78
2022-08-28T16:59:28.751Z,99370.72
2022-08-28T17:01:00.894Z,99365.03
2022-08-28T17:02:34.007Z,99380.22
2022-08-28T17:04:07.893Z,99387.09
2022-08-28T17:05:40.487Z,99379.97
2022-08-28T17:07:15.078Z,99381.28
2022-08-28T17:08:48.027Z,99381.16
2022-08-28T17:10:21.828Z,99390.13
2022-08-28T17:11:54.269Z,99396.91
2022-08-28T17:13:26.618Z,99395.41
2022-08-28T17:14:58.700Z,99400.13
2022-08-28T17:16:33.713Z,99402.09
2022-08-28T17:18:05.891Z,99403.34
2022-08-28T17:19:38.403Z,99407.44
2022-08-28T17:21:29.585Z,99408.72
2022-08-28T17:23:02.347Z,99404.41
2022-08-28T17:24:34.392Z,99408.34
2022-08-28T17:26:06.576Z,99418.59
2022-08-28T17:27:38.661Z,99415.03
2022-08-28T17:29:11.271Z,99423.91
2022-08-28T17:30:43.845Z,99425.84
2022-08-28T17:32:16.003Z,99431.34
2022-08-28T17:33:48.162Z,99429.84
2022-08-28T17:35:20.750Z,99431.13
2022-08-28T17:36:55.456Z,99428.97
2022-08-28T17:38:27.742Z,99433.00
2022-08-28T17:39:59.905Z,99434.19
2022-08-28T17:41:33.591Z,99436.13
2022-08-28T17:43:05.757Z,99439.63
2022-08-28T17:44:37.979Z,99438.78
2022-08-28T17:46:10.147Z,99449.03
2022-08-28T17:47:42.620Z,99446.16
2022-08-28T17:49:15.179Z,99440.59
2022-08-28T17:50:47.367Z,99456.38
2022-08-28T17:52:19.488Z,99452.78
2022-08-28T17:53:51.973Z,99454.06
2022-08-28T17:55:24.385Z,99450.50
2022-08-28T17:56:56.810Z,99446.16
2022-08-28T17:58:29.006Z,99452.28
2022-08-28T18:00:02.186Z,99448.69
2022-08-28T18:01:45.079Z,99454.06
2022-08-28T18:03:17.342Z,99453.25
2022-08-28T18:04:50.282Z,99458.56
2022-08-28T18:06:22.848Z,99470.94
2022-08-28T18:07:54.907Z,99465.94
2022-08-28T18:09:27.069Z,99465.81
2022-08-28T18:10:59.145Z,99470.50
2022-08-28T18:12:31.606Z,99464.84
2022-08-28T18:14:04.417Z,99464.66
2022-08-28T18:15:36.800Z,99465.22
2022-08-28T18:17:10.851Z,99470.47
2022-08-28T18:18:43.632Z,99475.06
2022-08-28T18:20:16.264Z,99479.00
2022-08-28T18:21:51.381Z,99483.63
2022-08-28T18:23:23.475Z,99479.31
2022-08-28T18:24:55.959Z,99488.09
2022-08-28T18:26:28.041Z,99483.16
2022-08-28T18:28:00.932Z,99480.91
2022-08-28T18:29:33.381Z,99489.03
2022-08-28T18:31:06.459Z,99488.28
2022-08-28T18:32:38.584Z,99491.59
2022-08-28T18:34:10.742Z,99495.63
2022-08-28T18:35:46.261Z,99492.09
2022-08-28T18:37:21.507Z,99500.94
2022-08-28T18:38:53.874Z,99498.72